sensor_id;sensor_type;location;lat;lon;timestamp;P1;durP1;ratioP1;P2;durP2;ratioP2
46689;SDS011;32423;45.398;10.874;2023-03-01T06:12:52;27.70;;;14.75;;
46689;SDS011;32423;45.398;10.874;2023-03-01T06:15:44;20.15;;;13.05;;
46689;SDS011;32423;45.398;10.874;2023-03-01T06:18:39;30.92;;;12.73;;
46689;SDS011;32423;45.398;10.874;2023-03-01T06:21:33;21.77;;;12.15;;
46689;SDS011;32423;45.398;10.874;2023-03-01T06:24:25;22.80;;;10.70;;
46689;SDS011;32423;45.398;10.874;2023-03-01T06:27:18;23.33;;;12.88;;
46689;SDS011;32423;45.398;10.874;2023-03-01T06:30:12;25.77;;;9.90;;
46689;SDS011;32423;45.398;10.874;2023-03-01T06:33:07;36.33;;;10.88;;
46689;SDS011;32423;45.398;10.874;2023-03-01T06:36:02;39.53;;;15.32;;
46689;SDS011;32423;45.398;10.874;2023-03-01T06:38:56;34.60;;;12.00;;
46689;SDS011;32423;45.398;10.874;2023-03-01T06:41:48;31.95;;;14.82;;
46689;SDS011;32423;45.398;10.874;2023-03-01T06:44:43;25.17;;;13.80;;
46689;SDS011;32423;45.398;10.874;2023-03-01T06:47:38;40.95;;;15.82;;
46689;SDS011;32423;45.398;10.874;2023-03-01T06:50:32;32.75;;;14.15;;
46689;SDS011;32423;45.398;10.874;2023-03-01T06:53:27;22.27;;;12.10;;
46689;SDS011;32423;45.398;10.874;2023-03-01T06:56:19;25.90;;;14.07;;
46689;SDS011;32423;45.398;10.874;2023-03-01T06:59:14;33.33;;;17.05;;
46689;SDS011;32423;45.398;10.874;2023-03-01T07:02:08;28.05;;;15.55;;
46689;SDS011;32423;45.398;10.874;2023-03-01T07:05:04;19.20;;;11.25;;
46689;SDS011;32423;45.398;10.874;2023-03-01T07:07:58;31.48;;;17.25;;
46689;SDS011;32423;45.398;10.874;2023-03-01T07:10:56;32.53;;;14.67;;
46689;SDS011;32423;45.398;10.874;2023-03-01T07:13:51;39.72;;;16.30;;
46689;SDS011;32423;45.398;10.874;2023-03-01T07:16:45;30.75;;;17.65;;
46689;SDS011;32423;45.398;10.874;2023-03-01T07:19:40;23.97;;;12.70;;
46689;SDS011;32423;45.398;10.874;2023-03-01T07:22:34;32.05;;;15.98;;
46689;SDS011;32423;45.398;10.874;2023-03-01T07:25:30;28.70;;;15.18;;
46689;SDS011;32423;45.398;10.874;2023-03-01T07:28:25;26.00;;;15.75;;
46689;SDS011;32423;45.398;10.874;2023-03-01T07:31:19;32.22;;;16.02;;
46689;SDS011;32423;45.398;10.874;2023-03-01T07:34:14;30.43;;;18.57;;
46689;SDS011;32423;45.398;10.874;2023-03-01T07:37:09;36.25;;;17.35;;
46689;SDS011;32423;45.398;10.874;2023-03-01T07:40:03;34.15;;;15.70;;
46689;SDS011;32423;45.398;10.874;2023-03-01T07:42:59;29.33;;;15.52;;
46689;SDS011;32423;45.398;10.874;2023-03-01T07:45:51;32.42;;;16.20;;
46689;SDS011;32423;45.398;10.874;2023-03-01T07:48:43;31.73;;;15.93;;
46689;SDS011;32423;45.398;10.874;2023-03-01T07:51:37;28.77;;;16.20;;
46689;SDS011;32423;45.398;10.874;2023-03-01T07:54:32;20.30;;;12.15;;
46689;SDS011;32423;45.398;10.874;2023-03-01T07:57:26;34.65;;;15.57;;
46689;SDS011;32423;45.398;10.874;2023-03-01T08:00:21;26.65;;;15.30;;
46689;SDS011;32423;45.398;10.874;2023-03-01T08:03:15;30.65;;;15.15;;
46689;SDS011;32423;45.398;10.874;2023-03-01T08:06:10;32.90;;;16.67;;
46689;SDS011;32423;45.398;10.874;2023-03-01T08:09:05;22.65;;;12.45;;
46689;SDS011;32423;45.398;10.874;2023-03-01T08:11:57;28.42;;;16.55;;
46689;SDS011;32423;45.398;10.874;2023-03-01T08:14:52;39.63;;;12.50;;
46689;SDS011;32423;45.398;10.874;2023-03-01T08:17:47;28.23;;;16.38;;
46689;SDS011;32423;45.398;10.874;2023-03-01T08:23:34;30.73;;;16.35;;
46689;SDS011;32423;45.398;10.874;2023-03-01T08:26:29;35.28;;;15.90;;
46689;SDS011;32423;45.398;10.874;2023-03-01T08:29:24;27.95;;;14.20;;
46689;SDS011;32423;45.398;10.874;2023-03-01T08:32:18;24.40;;;13.80;;
46689;SDS011;32423;45.398;10.874;2023-03-01T08:35:12;31.15;;;15.23;;
46689;SDS011;32423;45.398;10.874;2023-03-01T08:38:07;28.00;;;15.20;;
46689;SDS011;32423;45.398;10.874;2023-03-01T08:40:59;24.10;;;14.35;;
46689;SDS011;32423;45.398;10.874;2023-03-01T08:43:52;25.42;;;15.70;;
46689;SDS011;32423;45.398;10.874;2023-03-01T08:46:47;25.40;;;15.88;;
46689;SDS011;32423;45.398;10.874;2023-03-01T08:49:39;28.90;;;15.55;;
46689;SDS011;32423;45.398;10.874;2023-03-01T08:52:31;35.28;;;16.25;;
46689;SDS011;32423;45.398;10.874;2023-03-01T08:55:26;38.53;;;17.65;;
46689;SDS011;32423;45.398;10.874;2023-03-01T08:58:20;30.60;;;16.08;;
46689;SDS011;32423;45.398;10.874;2023-03-01T09:01:15;31.02;;;15.68;;
46689;SDS011;32423;45.398;10.874;2023-03-01T09:04:10;30.55;;;15.68;;
46689;SDS011;32423;45.398;10.874;2023-03-01T09:07:06;26.42;;;15.27;;
46689;SDS011;32423;45.398;10.874;2023-03-01T09:10:00;30.42;;;15.68;;
46689;SDS011;32423;45.398;10.874;2023-03-01T09:12:55;28.45;;;14.30;;
46689;SDS011;32423;45.398;10.874;2023-03-01T09:15:49;30.83;;;13.40;;
46689;SDS011;32423;45.398;10.874;2023-03-01T09:18:44;31.98;;;13.75;;
46689;SDS011;32423;45.398;10.874;2023-03-01T09:21:39;27.13;;;15.75;;
46689;SDS011;32423;45.398;10.874;2023-03-01T09:24:42;25.20;;;14.57;;
46689;SDS011;32423;45.398;10.874;2023-03-01T09:27:36;24.35;;;14.30;;
46689;SDS011;32423;45.398;10.874;2023-03-01T09:30:31;28.97;;;16.00;;
46689;SDS011;32423;45.398;10.874;2023-03-01T09:33:23;26.75;;;15.05;;
46689;SDS011;32423;45.398;10.874;2023-03-01T09:36:18;19.67;;;12.73;;
46689;SDS011;32423;45.398;10.874;2023-03-01T09:39:12;31.43;;;16.23;;
46689;SDS011;32423;45.398;10.874;2023-03-01T09:42:10;26.23;;;15.05;;
46689;SDS011;32423;45.398;10.874;2023-03-01T09:45:09;22.45;;;13.85;;
46689;SDS011;32423;45.398;10.874;2023-03-01T09:48:11;25.23;;;14.52;;
46689;SDS011;32423;45.398;10.874;2023-03-01T09:51:08;31.02;;;16.85;;
46689;SDS011;32423;45.398;10.874;2023-03-01T09:54:04;28.90;;;15.70;;
46689;SDS011;32423;45.398;10.874;2023-03-01T09:57:05;29.58;;;16.88;;
46689;SDS011;32423;45.398;10.874;2023-03-01T10:00:00;33.67;;;16.60;;
46689;SDS011;32423;45.398;10.874;2023-03-01T10:03:11;26.25;;;14.10;;
46689;SDS011;32423;45.398;10.874;2023-03-01T10:08:59;29.40;;;15.90;;
46689;SDS011;32423;45.398;10.874;2023-03-01T10:11:56;44.13;;;17.23;;
46689;SDS011;32423;45.398;10.874;2023-03-01T10:14:57;38.63;;;16.02;;
46689;SDS011;32423;45.398;10.874;2023-03-01T10:18:03;29.95;;;15.23;;
46689;SDS011;32423;45.398;10.874;2023-03-01T10:21:05;34.25;;;15.32;;
46689;SDS011;32423;45.398;10.874;2023-03-01T10:24:08;27.52;;;16.33;;
46689;SDS011;32423;45.398;10.874;2023-03-01T10:27:11;22.67;;;13.65;;
46689;SDS011;32423;45.398;10.874;2023-03-01T10:33:35;28.40;;;15.35;;
46689;SDS011;32423;45.398;10.874;2023-03-01T10:36:32;32.53;;;14.77;;
46689;SDS011;32423;45.398;10.874;2023-03-01T10:39:29;30.17;;;16.42;;
46689;SDS011;32423;45.398;10.874;2023-03-01T10:42:25;33.57;;;18.40;;
46689;SDS011;32423;45.398;10.874;2023-03-01T10:48:29;29.05;;;14.00;;
46689;SDS011;32423;45.398;10.874;2023-03-01T10:51:23;26.67;;;14.77;;
46689;SDS011;32423;45.398;10.874;2023-03-01T10:54:19;19.47;;;11.10;;
46689;SDS011;32423;45.398;10.874;2023-03-01T10:57:24;33.50;;;17.83;;
46689;SDS011;32423;45.398;10.874;2023-03-01T11:00:21;36.95;;;15.93;;
46689;SDS011;32423;45.398;10.874;2023-03-01T11:03:17;28.65;;;16.08;;
46689;SDS011;32423;45.398;10.874;2023-03-01T11:09:23;37.30;;;18.52;;
46689;SDS011;32423;45.398;10.874;2023-03-01T11:12:21;39.03;;;18.77;;
46689;SDS011;32423;45.398;10.874;2023-03-01T11:15:21;49.40;;;24.58;;
46689;SDS011;32423;45.398;10.874;2023-03-01T11:18:23;31.15;;;16.52;;
46689;SDS011;32423;45.398;10.874;2023-03-01T11:21:20;48.92;;;22.42;;
46689;SDS011;32423;45.398;10.874;2023-03-01T11:27:28;70.97;;;27.60;;
46689;SDS011;32423;45.398;10.874;2023-03-01T11:30:26;33.40;;;17.90;;
46689;SDS011;32423;45.398;10.874;2023-03-01T11:39:36;29.40;;;14.40;;
46689;SDS011;32423;45.398;10.874;2023-03-01T11:42:49;30.63;;;15.63;;
46689;SDS011;32423;45.398;10.874;2023-03-01T11:58:54;24.45;;;13.50;;
46689;SDS011;32423;45.398;10.874;2023-03-01T12:08:43;20.45;;;11.23;;
46689;SDS011;32423;45.398;10.874;2023-03-01T12:14:52;26.20;;;12.20;;
46689;SDS011;32423;45.398;10.874;2023-03-01T12:18:03;22.77;;;12.43;;
46689;SDS011;32423;45.398;10.874;2023-03-01T12:21:19;19.55;;;10.40;;
46689;SDS011;32423;45.398;10.874;2023-03-01T12:27:55;21.20;;;10.70;;
46689;SDS011;32423;45.398;10.874;2023-03-01T12:34:46;17.38;;;8.65;;
46689;SDS011;32423;45.398;10.874;2023-03-01T12:47:52;26.33;;;6.72;;
46689;SDS011;32423;45.398;10.874;2023-03-01T12:51:17;11.35;;;5.82;;
46689;SDS011;32423;45.398;10.874;2023-03-01T12:54:17;8.80;;;4.82;;
46689;SDS011;32423;45.398;10.874;2023-03-01T12:57:18;10.25;;;5.43;;
46689;SDS011;32423;45.398;10.874;2023-03-01T13:00:23;12.68;;;6.85;;
46689;SDS011;32423;45.398;10.874;2023-03-01T13:03:33;10.40;;;4.93;;
46689;SDS011;32423;45.398;10.874;2023-03-01T13:07:10;17.92;;;5.95;;
46689;SDS011;32423;45.398;10.874;2023-03-01T13:10:26;15.32;;;5.82;;
46689;SDS011;32423;45.398;10.874;2023-03-01T13:13:42;14.23;;;6.40;;
46689;SDS011;32423;45.398;10.874;2023-03-01T13:19:38;8.48;;;3.63;;
46689;SDS011;32423;45.398;10.874;2023-03-01T13:22:47;22.23;;;6.00;;
46689;SDS011;32423;45.398;10.874;2023-03-01T13:26:09;14.68;;;4.50;;
46689;SDS011;32423;45.398;10.874;2023-03-01T13:29:06;10.85;;;4.93;;
46689;SDS011;32423;45.398;10.874;2023-03-01T13:32:33;27.88;;;4.72;;
46689;SDS011;32423;45.398;10.874;2023-03-01T13:35:44;8.98;;;3.60;;
46689;SDS011;32423;45.398;10.874;2023-03-01T13:41:47;17.75;;;4.53;;
46689;SDS011;32423;45.398;10.874;2023-03-01T13:44:42;8.93;;;3.45;;
46689;SDS011;32423;45.398;10.874;2023-03-01T13:50:29;11.70;;;3.78;;
46689;SDS011;32423;45.398;10.874;2023-03-01T13:53:28;12.55;;;3.83;;
46689;SDS011;32423;45.398;10.874;2023-03-01T13:56:29;14.38;;;3.40;;
46689;SDS011;32423;45.398;10.874;2023-03-01T13:59:28;18.20;;;4.53;;
46689;SDS011;32423;45.398;10.874;2023-03-01T14:02:26;10.05;;;3.85;;
46689;SDS011;32423;45.398;10.874;2023-03-01T14:05:18;14.95;;;4.38;;
46689;SDS011;32423;45.398;10.874;2023-03-01T14:08:19;11.38;;;4.35;;
46689;SDS011;32423;45.398;10.874;2023-03-01T14:14:49;17.25;;;3.58;;
46689;SDS011;32423;45.398;10.874;2023-03-01T14:18:14;13.98;;;4.18;;
46689;SDS011;32423;45.398;10.874;2023-03-01T14:21:17;16.52;;;4.82;;
46689;SDS011;32423;45.398;10.874;2023-03-01T14:24:21;9.32;;;3.40;;
46689;SDS011;32423;45.398;10.874;2023-03-01T14:27:16;18.52;;;4.60;;
46689;SDS011;32423;45.398;10.874;2023-03-01T14:33:27;9.68;;;4.68;;
46689;SDS011;32423;45.398;10.874;2023-03-01T14:36:25;13.93;;;3.38;;
46689;SDS011;32423;45.398;10.874;2023-03-01T14:39:23;12.35;;;4.20;;
46689;SDS011;32423;45.398;10.874;2023-03-01T14:42:18;14.57;;;4.38;;
46689;SDS011;32423;45.398;10.874;2023-03-01T14:45:14;8.07;;;3.40;;
46689;SDS011;32423;45.398;10.874;2023-03-01T14:48:10;9.50;;;3.73;;
46689;SDS011;32423;45.398;10.874;2023-03-01T14:51:05;13.63;;;3.75;;
46689;SDS011;32423;45.398;10.874;2023-03-01T14:53:59;9.63;;;3.35;;
46689;SDS011;32423;45.398;10.874;2023-03-01T14:56:51;6.32;;;3.08;;
46689;SDS011;32423;45.398;10.874;2023-03-01T14:59:46;6.18;;;3.42;;
46689;SDS011;32423;45.398;10.874;2023-03-01T15:02:42;6.22;;;3.35;;
46689;SDS011;32423;45.398;10.874;2023-03-01T15:08:28;8.82;;;3.20;;
46689;SDS011;32423;45.398;10.874;2023-03-01T15:11:24;9.27;;;3.30;;
46689;SDS011;32423;45.398;10.874;2023-03-01T15:14:38;13.02;;;3.85;;
46689;SDS011;32423;45.398;10.874;2023-03-01T15:17:39;9.77;;;3.65;;
46689;SDS011;32423;45.398;10.874;2023-03-01T15:20:31;9.15;;;2.95;;
46689;SDS011;32423;45.398;10.874;2023-03-01T15:23:25;10.00;;;3.10;;
46689;SDS011;32423;45.398;10.874;2023-03-01T15:26:49;8.63;;;4.38;;
46689;SDS011;32423;45.398;10.874;2023-03-01T15:29:35;16.50;;;3.95;;
46689;SDS011;32423;45.398;10.874;2023-03-01T15:32:31;6.70;;;2.97;;
46689;SDS011;32423;45.398;10.874;2023-03-01T15:38:34;12.35;;;4.20;;
46689;SDS011;32423;45.398;10.874;2023-03-01T15:41:50;6.15;;;3.78;;
46689;SDS011;32423;45.398;10.874;2023-03-01T15:44:45;10.25;;;4.40;;
46689;SDS011;32423;45.398;10.874;2023-03-01T15:47:39;14.73;;;4.87;;
46689;SDS011;32423;45.398;10.874;2023-03-01T15:50:38;9.65;;;4.63;;
46689;SDS011;32423;45.398;10.874;2023-03-01T15:53:32;15.90;;;4.97;;
46689;SDS011;32423;45.398;10.874;2023-03-01T15:56:24;15.82;;;5.13;;
46689;SDS011;32423;45.398;10.874;2023-03-01T15:59:16;8.65;;;4.60;;
46689;SDS011;32423;45.398;10.874;2023-03-01T16:02:10;8.75;;;4.45;;
46689;SDS011;32423;45.398;10.874;2023-03-01T16:05:01;15.20;;;4.97;;
46689;SDS011;32423;45.398;10.874;2023-03-01T16:07:54;10.23;;;4.18;;
46689;SDS011;32423;45.398;10.874;2023-03-01T16:10:49;10.95;;;4.22;;
46689;SDS011;32423;45.398;10.874;2023-03-01T16:13:44;13.63;;;4.47;;
46689;SDS011;32423;45.398;10.874;2023-03-01T16:16:40;7.05;;;4.10;;
46689;SDS011;32423;45.398;10.874;2023-03-01T16:19:32;10.63;;;4.13;;
46689;SDS011;32423;45.398;10.874;2023-03-01T16:22:26;8.23;;;4.10;;
46689;SDS011;32423;45.398;10.874;2023-03-01T16:25:17;6.90;;;3.90;;
46689;SDS011;32423;45.398;10.874;2023-03-01T16:28:09;6.82;;;3.92;;
46689;SDS011;32423;45.398;10.874;2023-03-01T16:31:04;11.13;;;3.60;;
46689;SDS011;32423;45.398;10.874;2023-03-01T16:33:56;12.65;;;4.13;;
46689;SDS011;32423;45.398;10.874;2023-03-01T16:36:50;6.45;;;3.90;;
46689;SDS011;32423;45.398;10.874;2023-03-01T16:39:44;6.82;;;3.25;;
46689;SDS011;32423;45.398;10.874;2023-03-01T16:42:39;12.20;;;4.07;;
46689;SDS011;32423;45.398;10.874;2023-03-01T16:45:34;6.97;;;2.97;;
46689;SDS011;32423;45.398;10.874;2023-03-01T16:48:26;5.70;;;3.28;;
46689;SDS011;32423;45.398;10.874;2023-03-01T16:51:21;12.30;;;4.83;;
46689;SDS011;32423;45.398;10.874;2023-03-01T16:54:17;7.40;;;3.40;;
46689;SDS011;32423;45.398;10.874;2023-03-01T16:57:06;14.68;;;4.35;;
46689;SDS011;32423;45.398;10.874;2023-03-01T17:00:01;7.95;;;3.42;;
46689;SDS011;32423;45.398;10.874;2023-03-01T17:05:48;9.13;;;3.40;;
46689;SDS011;32423;45.398;10.874;2023-03-01T17:08:43;4.57;;;3.80;;
46689;SDS011;32423;45.398;10.874;2023-03-01T17:11:37;10.33;;;3.97;;
46689;SDS011;32423;45.398;10.874;2023-03-01T17:14:32;5.88;;;2.92;;
46689;SDS011;32423;45.398;10.874;2023-03-01T17:17:24;10.73;;;4.00;;
46689;SDS011;32423;45.398;10.874;2023-03-01T17:20:19;9.30;;;4.15;;
46689;SDS011;32423;45.398;10.874;2023-03-01T17:23:13;11.43;;;4.40;;
46689;SDS011;32423;45.398;10.874;2023-03-01T17:26:05;6.63;;;3.83;;
46689;SDS011;32423;45.398;10.874;2023-03-01T17:28:55;8.15;;;3.97;;
46689;SDS011;32423;45.398;10.874;2023-03-01T17:31:50;9.47;;;5.07;;
46689;SDS011;32423;45.398;10.874;2023-03-01T17:34:42;8.10;;;4.28;;
46689;SDS011;32423;45.398;10.874;2023-03-01T17:37:37;7.32;;;3.60;;
46689;SDS011;32423;45.398;10.874;2023-03-01T17:40:34;8.70;;;3.88;;
46689;SDS011;32423;45.398;10.874;2023-03-01T17:43:28;10.13;;;4.30;;
46689;SDS011;32423;45.398;10.874;2023-03-01T17:46:22;10.63;;;4.68;;
46689;SDS011;32423;45.398;10.874;2023-03-01T17:49:17;10.13;;;4.40;;
46689;SDS011;32423;45.398;10.874;2023-03-01T17:52:09;5.60;;;4.25;;
46689;SDS011;32423;45.398;10.874;2023-03-01T17:54:58;8.85;;;5.07;;
46689;SDS011;32423;45.398;10.874;2023-03-01T17:57:53;10.00;;;4.85;;
46689;SDS011;32423;45.398;10.874;2023-03-01T18:00:47;8.60;;;4.97;;
46689;SDS011;32423;45.398;10.874;2023-03-01T18:03:40;7.55;;;5.05;;
46689;SDS011;32423;45.398;10.874;2023-03-01T18:06:34;7.55;;;3.88;;
46689;SDS011;32423;45.398;10.874;2023-03-01T18:09:28;7.32;;;4.45;;
46689;SDS011;32423;45.398;10.874;2023-03-01T18:12:23;9.07;;;4.43;;
46689;SDS011;32423;45.398;10.874;2023-03-01T18:15:17;8.27;;;4.72;;
46689;SDS011;32423;45.398;10.874;2023-03-01T18:18:12;9.50;;;3.17;;
46689;SDS011;32423;45.398;10.874;2023-03-01T18:21:07;5.60;;;3.00;;
46689;SDS011;32423;45.398;10.874;2023-03-01T18:23:59;3.97;;;2.70;;
46689;SDS011;32423;45.398;10.874;2023-03-01T18:26:54;6.65;;;3.75;;
46689;SDS011;32423;45.398;10.874;2023-03-01T18:29:48;6.57;;;3.42;;
46689;SDS011;32423;45.398;10.874;2023-03-01T18:32:43;9.17;;;3.67;;
46689;SDS011;32423;45.398;10.874;2023-03-01T18:35:37;5.82;;;2.92;;
46689;SDS011;32423;45.398;10.874;2023-03-01T18:38:32;5.70;;;3.37;;
46689;SDS011;32423;45.398;10.874;2023-03-01T18:41:24;5.93;;;3.58;;
46689;SDS011;32423;45.398;10.874;2023-03-01T18:44:21;9.13;;;3.65;;
46689;SDS011;32423;45.398;10.874;2023-03-01T18:47:15;7.45;;;3.53;;
46689;SDS011;32423;45.398;10.874;2023-03-01T18:50:10;7.63;;;3.55;;
46689;SDS011;32423;45.398;10.874;2023-03-01T18:53:04;11.37;;;2.57;;
46689;SDS011;32423;45.398;10.874;2023-03-01T18:55:59;9.02;;;3.58;;
46689;SDS011;32423;45.398;10.874;2023-03-01T18:58:53;6.33;;;3.40;;
46689;SDS011;32423;45.398;10.874;2023-03-01T19:01:48;5.27;;;2.73;;
46689;SDS011;32423;45.398;10.874;2023-03-01T19:04:40;4.60;;;2.95;;
46689;SDS011;32423;45.398;10.874;2023-03-01T19:07:35;7.70;;;3.85;;
46689;SDS011;32423;45.398;10.874;2023-03-01T19:10:29;7.53;;;3.00;;
46689;SDS011;32423;45.398;10.874;2023-03-01T19:13:21;7.75;;;3.00;;
46689;SDS011;32423;45.398;10.874;2023-03-01T19:16:19;6.00;;;2.63;;
46689;SDS011;32423;45.398;10.874;2023-03-01T19:19:16;7.60;;;3.25;;
46689;SDS011;32423;45.398;10.874;2023-03-01T19:22:08;7.80;;;2.83;;
46689;SDS011;32423;45.398;10.874;2023-03-01T19:25:02;9.77;;;2.88;;
46689;SDS011;32423;45.398;10.874;2023-03-01T19:27:57;6.32;;;2.90;;
46689;SDS011;32423;45.398;10.874;2023-03-01T19:30:49;7.25;;;3.15;;
46689;SDS011;32423;45.398;10.874;2023-03-01T19:33:48;6.72;;;2.90;;
46689;SDS011;32423;45.398;10.874;2023-03-01T19:36:41;5.30;;;2.58;;
46689;SDS011;32423;45.398;10.874;2023-03-01T19:39:34;4.35;;;2.95;;
46689;SDS011;32423;45.398;10.874;2023-03-01T19:42:29;7.22;;;3.08;;
46689;SDS011;32423;45.398;10.874;2023-03-01T19:45:21;10.05;;;2.78;;
46689;SDS011;32423;45.398;10.874;2023-03-01T19:48:16;3.77;;;2.50;;
46689;SDS011;32423;45.398;10.874;2023-03-01T19:51:06;8.25;;;2.47;;
46689;SDS011;32423;45.398;10.874;2023-03-01T19:54:00;9.57;;;3.33;;
46689;SDS011;32423;45.398;10.874;2023-03-01T19:56:53;3.80;;;2.47;;
46689;SDS011;32423;45.398;10.874;2023-03-01T19:59:48;6.65;;;1.80;;
46689;SDS011;32423;45.398;10.874;2023-03-01T20:02:40;7.18;;;3.08;;
46689;SDS011;32423;45.398;10.874;2023-03-01T20:05:35;4.28;;;1.75;;
46689;SDS011;32423;45.398;10.874;2023-03-01T20:08:30;3.88;;;2.47;;
46689;SDS011;32423;45.398;10.874;2023-03-01T20:11:20;6.70;;;3.22;;
46689;SDS011;32423;45.398;10.874;2023-03-01T20:14:10;7.28;;;2.70;;
46689;SDS011;32423;45.398;10.874;2023-03-01T20:17:00;5.97;;;2.10;;
46689;SDS011;32423;45.398;10.874;2023-03-01T20:19:54;5.35;;;2.38;;
46689;SDS011;32423;45.398;10.874;2023-03-01T20:22:44;3.72;;;2.00;;
46689;SDS011;32423;45.398;10.874;2023-03-01T20:25:36;6.13;;;2.30;;
46689;SDS011;32423;45.398;10.874;2023-03-01T20:28:28;4.35;;;2.30;;
46689;SDS011;32423;45.398;10.874;2023-03-01T20:31:16;5.38;;;2.30;;
46689;SDS011;32423;45.398;10.874;2023-03-01T20:34:09;3.78;;;2.30;;
46689;SDS011;32423;45.398;10.874;2023-03-01T20:36:58;3.28;;;2.30;;
46689;SDS011;32423;45.398;10.874;2023-03-01T20:39:53;8.80;;;2.05;;
46689;SDS011;32423;45.398;10.874;2023-03-01T20:42:48;2.67;;;1.48;;
46689;SDS011;32423;45.398;10.874;2023-03-01T20:45:40;1.70;;;1.17;;
46689;SDS011;32423;45.398;10.874;2023-03-01T20:48:34;4.65;;;1.70;;
46689;SDS011;32423;45.398;10.874;2023-03-01T20:51:31;2.55;;;2.00;;
46689;SDS011;32423;45.398;10.874;2023-03-01T20:54:23;3.88;;;1.88;;
46689;SDS011;32423;45.398;10.874;2023-03-01T20:57:13;11.48;;;2.35;;
46689;SDS011;32423;45.398;10.874;2023-03-01T21:00:03;2.20;;;1.58;;
46689;SDS011;32423;45.398;10.874;2023-03-01T21:02:57;4.68;;;2.28;;
46689;SDS011;32423;45.398;10.874;2023-03-01T21:05:53;3.25;;;1.25;;
46689;SDS011;32423;45.398;10.874;2023-03-01T21:08:44;4.57;;;1.90;;
46689;SDS011;32423;45.398;10.874;2023-03-01T21:11:33;9.00;;;2.42;;
46689;SDS011;32423;45.398;10.874;2023-03-01T21:14:25;6.55;;;1.90;;
46689;SDS011;32423;45.398;10.874;2023-03-01T21:17:17;2.75;;;1.58;;
46689;SDS011;32423;45.398;10.874;2023-03-01T21:20:07;5.07;;;1.92;;
46689;SDS011;32423;45.398;10.874;2023-03-01T21:23:00;2.92;;;1.25;;
46689;SDS011;32423;45.398;10.874;2023-03-01T21:26:05;5.50;;;1.63;;
46689;SDS011;32423;45.398;10.874;2023-03-01T21:29:00;4.03;;;1.77;;
46689;SDS011;32423;45.398;10.874;2023-03-01T21:31:49;2.60;;;1.42;;
46689;SDS011;32423;45.398;10.874;2023-03-01T21:34:43;3.63;;;1.30;;
46689;SDS011;32423;45.398;10.874;2023-03-01T21:37:35;7.75;;;1.52;;
46689;SDS011;32423;45.398;10.874;2023-03-01T21:40:29;2.83;;;1.45;;
46689;SDS011;32423;45.398;10.874;2023-03-01T21:43:24;1.98;;;1.38;;
46689;SDS011;32423;45.398;10.874;2023-03-01T21:46:16;3.47;;;1.88;;
46689;SDS011;32423;45.398;10.874;2023-03-01T21:49:11;2.90;;;1.65;;
46689;SDS011;32423;45.398;10.874;2023-03-01T21:52:06;1.45;;;1.20;;
46689;SDS011;32423;45.398;10.874;2023-03-01T21:55:05;2.33;;;1.30;;
46689;SDS011;32423;45.398;10.874;2023-03-01T21:58:01;6.53;;;1.95;;
46689;SDS011;32423;45.398;10.874;2023-03-01T22:01:04;4.00;;;1.60;;
46689;SDS011;32423;45.398;10.874;2023-03-01T22:04:00;1.90;;;0.95;;
46689;SDS011;32423;45.398;10.874;2023-03-01T22:06:55;2.45;;;1.50;;
46689;SDS011;32423;45.398;10.874;2023-03-01T22:09:50;3.20;;;1.50;;
46689;SDS011;32423;45.398;10.874;2023-03-01T22:12:42;2.50;;;1.67;;
46689;SDS011;32423;45.398;10.874;2023-03-01T22:15:34;4.43;;;1.23;;
46689;SDS011;32423;45.398;10.874;2023-03-01T22:18:32;3.83;;;2.10;;
46689;SDS011;32423;45.398;10.874;2023-03-01T22:21:27;3.42;;;1.48;;
46689;SDS011;32423;45.398;10.874;2023-03-01T22:24:22;3.15;;;1.55;;
46689;SDS011;32423;45.398;10.874;2023-03-01T22:27:17;2.67;;;0.98;;
46689;SDS011;32423;45.398;10.874;2023-03-01T22:30:11;3.70;;;1.80;;
46689;SDS011;32423;45.398;10.874;2023-03-01T22:33:06;2.97;;;1.38;;
46689;SDS011;32423;45.398;10.874;2023-03-01T22:36:00;2.42;;;1.05;;
46689;SDS011;32423;45.398;10.874;2023-03-01T22:38:55;3.40;;;1.63;;
46689;SDS011;32423;45.398;10.874;2023-03-01T22:41:53;5.05;;;1.45;;
46689;SDS011;32423;45.398;10.874;2023-03-01T22:44:45;2.60;;;1.42;;
46689;SDS011;32423;45.398;10.874;2023-03-01T22:47:39;2.23;;;1.00;;
46689;SDS011;32423;45.398;10.874;2023-03-01T22:50:31;3.60;;;1.35;;
46689;SDS011;32423;45.398;10.874;2023-03-01T22:53:24;2.55;;;1.42;;
46689;SDS011;32423;45.398;10.874;2023-03-01T22:56:20;1.83;;;1.30;;
46689;SDS011;32423;45.398;10.874;2023-03-01T22:59:17;2.05;;;1.38;;
46689;SDS011;32423;45.398;10.874;2023-03-01T23:02:11;2.95;;;1.80;;
46689;SDS011;32423;45.398;10.874;2023-03-01T23:05:05;1.30;;;1.02;;
46689;SDS011;32423;45.398;10.874;2023-03-01T23:08:03;2.03;;;1.15;;
46689;SDS011;32423;45.398;10.874;2023-03-01T23:10:58;3.33;;;1.30;;
46689;SDS011;32423;45.398;10.874;2023-03-01T23:13:52;2.65;;;1.60;;
46689;SDS011;32423;45.398;10.874;2023-03-01T23:16:48;2.30;;;1.30;;
46689;SDS011;32423;45.398;10.874;2023-03-01T23:19:43;1.65;;;1.40;;
46689;SDS011;32423;45.398;10.874;2023-03-01T23:22:38;3.00;;;1.58;;
46689;SDS011;32423;45.398;10.874;2023-03-01T23:25:32;3.10;;;1.00;;
46689;SDS011;32423;45.398;10.874;2023-03-01T23:28:27;1.42;;;0.77;;
46689;SDS011;32423;45.398;10.874;2023-03-01T23:31:22;1.40;;;1.25;;
46689;SDS011;32423;45.398;10.874;2023-03-01T23:34:20;2.75;;;1.25;;
46689;SDS011;32423;45.398;10.874;2023-03-01T23:37:15;2.33;;;1.10;;
46689;SDS011;32423;45.398;10.874;2023-03-01T23:40:09;2.67;;;1.47;;
46689;SDS011;32423;45.398;10.874;2023-03-01T23:43:05;2.90;;;1.20;;
46689;SDS011;32423;45.398;10.874;2023-03-01T23:45:59;2.22;;;1.10;;
46689;SDS011;32423;45.398;10.874;2023-03-01T23:48:51;3.90;;;1.13;;
46689;SDS011;32423;45.398;10.874;2023-03-01T23:51:46;3.00;;;1.35;;
46689;SDS011;32423;45.398;10.874;2023-03-01T23:54:41;2.45;;;1.00;;
46689;SDS011;32423;45.398;10.874;2023-03-01T23:57:36;1.70;;;1.08;;
